sensor_id;sensor_type;location;lat;lon;timestamp;pressure;altitude;pressure_sealevel;temperature;humidity
46015;BME280;36844;51.898;-0.874;2023-02-26T00:01:36;101152.56;;;20.49;
46015;BME280;36844;51.898;-0.874;2023-02-26T00:04:03;101158.34;;;20.47;
46015;BME280;36844;51.898;-0.874;2023-02-26T00:06:30;101162.66;;;20.45;
46015;BME280;36844;51.898;-0.874;2023-02-26T00:08:56;101161.13;;;20.44;
46015;BME280;36844;51.898;-0.874;2023-02-26T00:11:21;101160.34;;;20.40;
46015;BME280;36844;51.898;-0.874;2023-02-26T00:13:46;101158.44;;;20.37;
46015;BME280;36844;51.898;-0.874;2023-02-26T00:18:37;101152.69;;;20.31;
46015;BME280;36844;51.898;-0.874;2023-02-26T00:21:02;101163.13;;;20.29;
46015;BME280;36844;51.898;-0.874;2023-02-26T00:23:28;101159.28;;;20.27;
46015;BME280;36844;51.898;-0.874;2023-02-26T00:25:53;101151.97;;;20.24;
46015;BME280;36844;51.898;-0.874;2023-02-26T00:28:18;101154.25;;;20.22;
46015;BME280;36844;51.898;-0.874;2023-02-26T00:30:44;101148.88;;;20.18;
46015;BME280;36844;51.898;-0.874;2023-02-26T00:33:09;101150.44;;;20.16;
46015;BME280;36844;51.898;-0.874;2023-02-26T00:35:34;101152.78;;;20.14;
46015;BME280;36844;51.898;-0.874;2023-02-26T00:38:01;101151.59;;;20.11;
46015;BME280;36844;51.898;-0.874;2023-02-26T00:40:37;101153.16;;;20.09;
46015;BME280;36844;51.898;-0.874;2023-02-26T00:43:04;101155.13;;;20.05;
46015;BME280;36844;51.898;-0.874;2023-02-26T00:45:30;101157.09;;;20.01;
46015;BME280;36844;51.898;-0.874;2023-02-26T00:48:05;101153.97;;;19.99;
46015;BME280;36844;51.898;-0.874;2023-02-26T00:50:36;101158.25;;;19.96;
46015;BME280;36844;51.898;-0.874;2023-02-26T00:53:15;101151.31;;;19.92;
46015;BME280;36844;51.898;-0.874;2023-02-26T00:55:42;101159.81;;;19.90;
46015;BME280;36844;51.898;-0.874;2023-02-26T00:58:07;101156.72;;;19.88;
46015;BME280;36844;51.898;-0.874;2023-02-26T01:00:32;101169.09;;;19.86;
46015;BME280;36844;51.898;-0.874;2023-02-26T01:02:58;101167.16;;;19.83;
46015;BME280;36844;51.898;-0.874;2023-02-26T01:05:23;101157.91;;;19.80;
46015;BME280;36844;51.898;-0.874;2023-02-26T01:07:51;101167.56;;;19.77;
46015;BME280;36844;51.898;-0.874;2023-02-26T01:10:18;101171.03;;;19.74;
46015;BME280;36844;51.898;-0.874;2023-02-26T01:12:44;101172.59;;;19.72;
46015;BME280;36844;51.898;-0.874;2023-02-26T01:15:09;101173.41;;;19.69;
46015;BME280;36844;51.898;-0.874;2023-02-26T01:17:37;101183.03;;;19.66;
46015;BME280;36844;51.898;-0.874;2023-02-26T01:20:08;101185.34;;;19.64;
46015;BME280;36844;51.898;-0.874;2023-02-26T01:25:07;101193.09;;;19.59;
46015;BME280;36844;51.898;-0.874;2023-02-26T01:27:33;101189.25;;;19.56;
46015;BME280;36844;51.898;-0.874;2023-02-26T01:29:59;101188.84;;;19.54;
46015;BME280;36844;51.898;-0.874;2023-02-26T01:35:12;101193.88;;;19.49;
46015;BME280;36844;51.898;-0.874;2023-02-26T01:42:42;101191.56;;;19.40;
46015;BME280;36844;51.898;-0.874;2023-02-26T01:45:14;101186.94;;;19.37;
46015;BME280;36844;51.898;-0.874;2023-02-26T01:50:24;101184.63;;;19.32;
46015;BME280;36844;51.898;-0.874;2023-02-26T01:55:37;101187.72;;;19.27;
46015;BME280;36844;51.898;-0.874;2023-02-26T01:58:05;101186.53;;;19.25;
46015;BME280;36844;51.898;-0.874;2023-02-26T02:00:31;101183.47;;;19.23;
46015;BME280;36844;51.898;-0.874;2023-02-26T02:02:56;101194.66;;;19.21;
46015;BME280;36844;51.898;-0.874;2023-02-26T02:05:27;101197.00;;;19.19;
46015;BME280;36844;51.898;-0.874;2023-02-26T02:07:53;101193.09;;;19.17;
46015;BME280;36844;51.898;-0.874;2023-02-26T02:10:20;101197.34;;;19.14;
46015;BME280;36844;51.898;-0.874;2023-02-26T02:15:18;101202.75;;;19.11;
46015;BME280;36844;51.898;-0.874;2023-02-26T02:18:00;101195.44;;;19.08;
46015;BME280;36844;51.898;-0.874;2023-02-26T02:23:11;101224.72;;;19.02;
46015;BME280;36844;51.898;-0.874;2023-02-26T02:28:39;101233.22;;;18.97;
46015;BME280;36844;51.898;-0.874;2023-02-26T02:31:16;101228.56;;;18.94;
46015;BME280;36844;51.898;-0.874;2023-02-26T02:33:47;101222.78;;;18.92;
46015;BME280;36844;51.898;-0.874;2023-02-26T02:36:29;101230.47;;;18.90;
46015;BME280;36844;51.898;-0.874;2023-02-26T02:38:56;101224.69;;;18.88;
46015;BME280;36844;51.898;-0.874;2023-02-26T02:41:31;101227.78;;;18.87;
46015;BME280;36844;51.898;-0.874;2023-02-26T02:43:59;101227.38;;;18.85;
46015;BME280;36844;51.898;-0.874;2023-02-26T02:46:26;101220.06;;;18.82;
46015;BME280;36844;51.898;-0.874;2023-02-26T02:49:02;101203.13;;;18.81;
46015;BME280;36844;51.898;-0.874;2023-02-26T02:51:32;101201.16;;;18.78;
46015;BME280;36844;51.898;-0.874;2023-02-26T02:54:03;101202.31;;;18.77;
46015;BME280;36844;51.898;-0.874;2023-02-26T02:56:33;101209.22;;;18.74;
46015;BME280;36844;51.898;-0.874;2023-02-26T03:01:30;101218.50;;;18.70;
46015;BME280;36844;51.898;-0.874;2023-02-26T03:03:58;101219.63;;;18.69;
46015;BME280;36844;51.898;-0.874;2023-02-26T03:06:26;101221.91;;;18.67;
46015;BME280;36844;51.898;-0.874;2023-02-26T03:08:51;101223.13;;;18.66;
46015;BME280;36844;51.898;-0.874;2023-02-26T03:11:17;101224.25;;;18.65;
46015;BME280;36844;51.898;-0.874;2023-02-26T03:13:42;101225.81;;;18.62;
46015;BME280;36844;51.898;-0.874;2023-02-26T03:16:55;101229.63;;;18.61;
46015;BME280;36844;51.898;-0.874;2023-02-26T03:21:43;101228.84;;;18.57;
46015;BME280;36844;51.898;-0.874;2023-02-26T03:24:15;101233.09;;;18.55;
46015;BME280;36844;51.898;-0.874;2023-02-26T03:26:53;101221.88;;;18.53;
46015;BME280;36844;51.898;-0.874;2023-02-26T03:29:34;101231.13;;;18.52;
46015;BME280;36844;51.898;-0.874;2023-02-26T03:32:04;101231.91;;;18.49;
46015;BME280;36844;51.898;-0.874;2023-02-26T03:34:39;101223.03;;;18.48;
46015;BME280;36844;51.898;-0.874;2023-02-26T03:37:10;101236.13;;;18.46;
46015;BME280;36844;51.898;-0.874;2023-02-26T03:39:40;101232.63;;;18.46;
46015;BME280;36844;51.898;-0.874;2023-02-26T03:44:32;101230.31;;;18.41;
46015;BME280;36844;51.898;-0.874;2023-02-26T03:47:04;101236.84;;;18.40;
46015;BME280;36844;51.898;-0.874;2023-02-26T03:49:36;101244.56;;;18.38;
46015;BME280;36844;51.898;-0.874;2023-02-26T03:52:02;101245.69;;;18.37;
46015;BME280;36844;51.898;-0.874;2023-02-26T03:54:37;101244.56;;;18.34;
46015;BME280;36844;51.898;-0.874;2023-02-26T03:57:03;101263.44;;;18.34;
46015;BME280;36844;51.898;-0.874;2023-02-26T03:59:28;101251.47;;;18.32;
46015;BME280;36844;51.898;-0.874;2023-02-26T04:01:57;101252.63;;;18.31;
46015;BME280;36844;51.898;-0.874;2023-02-26T04:04:25;101241.41;;;18.29;
46015;BME280;36844;51.898;-0.874;2023-02-26T04:06:52;101239.91;;;18.28;
46015;BME280;36844;51.898;-0.874;2023-02-26T04:09:21;101253.75;;;18.26;
46015;BME280;36844;51.898;-0.874;2023-02-26T04:11:46;101254.09;;;18.25;
46015;BME280;36844;51.898;-0.874;2023-02-26T04:14:13;101253.72;;;18.23;
46015;BME280;36844;51.898;-0.874;2023-02-26T04:16:38;101259.13;;;18.23;
46015;BME280;36844;51.898;-0.874;2023-02-26T04:19:03;101262.16;;;18.21;
46015;BME280;36844;51.898;-0.874;2023-02-26T04:21:28;101259.88;;;18.20;
46015;BME280;36844;51.898;-0.874;2023-02-26T04:23:53;101262.16;;;18.18;
46015;BME280;36844;51.898;-0.874;2023-02-26T04:26:19;101269.47;;;18.17;
46015;BME280;36844;51.898;-0.874;2023-02-26T04:28:44;101275.25;;;18.16;
46015;BME280;36844;51.898;-0.874;2023-02-26T04:31:09;101279.09;;;18.15;
46015;BME280;36844;51.898;-0.874;2023-02-26T04:33:34;101276.03;;;18.13;
46015;BME280;36844;51.898;-0.874;2023-02-26T04:36:00;101281.75;;;18.11;
46015;BME280;36844;51.898;-0.874;2023-02-26T04:38:25;101278.28;;;18.11;
46015;BME280;36844;51.898;-0.874;2023-02-26T04:40:50;101285.22;;;18.08;
46015;BME280;36844;51.898;-0.874;2023-02-26T04:43:16;101284.81;;;18.06;
46015;BME280;36844;51.898;-0.874;2023-02-26T04:45:44;101286.75;;;18.06;
46015;BME280;36844;51.898;-0.874;2023-02-26T04:48:09;101289.81;;;18.04;
46015;BME280;36844;51.898;-0.874;2023-02-26T04:50:34;101291.72;;;18.04;
46015;BME280;36844;51.898;-0.874;2023-02-26T04:52:59;101292.84;;;18.03;
46015;BME280;36844;51.898;-0.874;2023-02-26T04:55:25;101291.69;;;18.00;
46015;BME280;36844;51.898;-0.874;2023-02-26T04:57:50;101298.22;;;17.99;
46015;BME280;36844;51.898;-0.874;2023-02-26T05:00:16;101289.78;;;17.97;
46015;BME280;36844;51.898;-0.874;2023-02-26T05:02:41;101307.06;;;17.96;
46015;BME280;36844;51.898;-0.874;2023-02-26T05:05:07;101300.16;;;17.95;
46015;BME280;36844;51.898;-0.874;2023-02-26T05:07:32;101298.59;;;17.94;
46015;BME280;36844;51.898;-0.874;2023-02-26T05:09:57;101302.44;;;17.93;
46015;BME280;36844;51.898;-0.874;2023-02-26T05:12:22;101298.19;;;17.92;
46015;BME280;36844;51.898;-0.874;2023-02-26T05:14:48;101297.78;;;17.90;
46015;BME280;36844;51.898;-0.874;2023-02-26T05:17:13;101303.53;;;17.89;
46015;BME280;36844;51.898;-0.874;2023-02-26T05:19:38;101310.09;;;17.88;
46015;BME280;36844;51.898;-0.874;2023-02-26T05:22:03;101305.84;;;17.87;
46015;BME280;36844;51.898;-0.874;2023-02-26T05:24:29;101319.69;;;17.85;
46015;BME280;36844;51.898;-0.874;2023-02-26T05:26:54;101316.22;;;17.85;
46015;BME280;36844;51.898;-0.874;2023-02-26T05:29:19;101318.50;;;17.83;
46015;BME280;36844;51.898;-0.874;2023-02-26T05:31:44;101319.66;;;17.82;
46015;BME280;36844;51.898;-0.874;2023-02-26T05:34:09;101320.81;;;17.81;
46015;BME280;36844;51.898;-0.874;2023-02-26T05:36:35;101313.09;;;17.79;
46015;BME280;36844;51.898;-0.874;2023-02-26T05:39:00;101314.25;;;17.78;
46015;BME280;36844;51.898;-0.874;2023-02-26T05:41:25;101320.34;;;17.75;
46015;BME280;36844;51.898;-0.874;2023-02-26T05:43:50;101324.22;;;17.74;
46015;BME280;36844;51.898;-0.874;2023-02-26T05:46:15;101327.28;;;17.72;
46015;BME280;36844;51.898;-0.874;2023-02-26T05:48:41;101329.97;;;17.72;
46015;BME280;36844;51.898;-0.874;2023-02-26T05:51:06;101329.56;;;17.70;
46015;BME280;36844;51.898;-0.874;2023-02-26T05:53:31;101330.72;;;17.69;
46015;BME280;36844;51.898;-0.874;2023-02-26T05:55:56;101345.34;;;17.68;
46015;BME280;36844;51.898;-0.874;2023-02-26T05:58:21;101339.53;;;17.66;
46015;BME280;36844;51.898;-0.874;2023-02-26T06:00:47;101336.06;;;17.66;
46015;BME280;36844;51.898;-0.874;2023-02-26T06:03:12;101343.38;;;17.65;
46015;BME280;36844;51.898;-0.874;2023-02-26T06:05:37;101346.44;;;17.64;
46015;BME280;36844;51.898;-0.874;2023-02-26T06:08:03;101359.13;;;17.63;
46015;BME280;36844;51.898;-0.874;2023-02-26T06:10:29;101358.75;;;17.61;
46015;BME280;36844;51.898;-0.874;2023-02-26T06:12:54;101356.38;;;17.60;
46015;BME280;36844;51.898;-0.874;2023-02-26T06:15:19;101355.59;;;17.59;
46015;BME280;36844;51.898;-0.874;2023-02-26T06:17:45;101367.56;;;17.58;
46015;BME280;36844;51.898;-0.874;2023-02-26T06:20:10;101372.53;;;17.56;
46015;BME280;36844;51.898;-0.874;2023-02-26T06:22:36;101377.13;;;17.56;
46015;BME280;36844;51.898;-0.874;2023-02-26T06:25:02;101368.25;;;17.55;
46015;BME280;36844;51.898;-0.874;2023-02-26T06:27:27;101374.84;;;17.54;
46015;BME280;36844;51.898;-0.874;2023-02-26T06:29:52;101377.88;;;17.53;
46015;BME280;36844;51.898;-0.874;2023-02-26T06:32:17;101374.03;;;17.50;
46015;BME280;36844;51.898;-0.874;2023-02-26T06:34:42;101380.19;;;17.51;
46015;BME280;36844;51.898;-0.874;2023-02-26T06:37:08;101377.84;;;17.49;
46015;BME280;36844;51.898;-0.874;2023-02-26T06:39:33;101378.97;;;17.48;
46015;BME280;36844;51.898;-0.874;2023-02-26T06:41:58;101388.22;;;17.47;
46015;BME280;36844;51.898;-0.874;2023-02-26T06:44:23;101392.06;;;17.46;
46015;BME280;36844;51.898;-0.874;2023-02-26T06:46:49;101395.88;;;17.45;
46015;BME280;36844;51.898;-0.874;2023-02-26T06:49:14;101395.88;;;17.45;
46015;BME280;36844;51.898;-0.874;2023-02-26T06:51:39;101393.53;;;17.44;
46015;BME280;36844;51.898;-0.874;2023-02-26T06:54:05;101391.59;;;17.44;
46015;BME280;36844;51.898;-0.874;2023-02-26T06:56:30;101398.56;;;17.45;
46015;BME280;36844;51.898;-0.874;2023-02-26T06:58:55;101401.25;;;17.45;
46015;BME280;36844;51.898;-0.874;2023-02-26T07:01:20;101411.69;;;17.47;
46015;BME280;36844;51.898;-0.874;2023-02-26T07:03:46;101409.78;;;17.47;
46015;BME280;36844;51.898;-0.874;2023-02-26T07:06:11;101415.53;;;17.49;
46015;BME280;36844;51.898;-0.874;2023-02-26T07:08:36;101419.81;;;17.50;
46015;BME280;36844;51.898;-0.874;2023-02-26T07:11:02;101426.34;;;17.53;
46015;BME280;36844;51.898;-0.874;2023-02-26T07:13:28;101430.63;;;17.54;
46015;BME280;36844;51.898;-0.874;2023-02-26T07:15:53;101438.75;;;17.57;
46015;BME280;36844;51.898;-0.874;2023-02-26T07:18:18;101444.50;;;17.59;
46015;BME280;36844;51.898;-0.874;2023-02-26T07:20:43;101441.09;;;17.62;
46015;BME280;36844;51.898;-0.874;2023-02-26T07:23:10;101450.38;;;17.65;
46015;BME280;36844;51.898;-0.874;2023-02-26T07:25:35;101451.19;;;17.69;
46015;BME280;36844;51.898;-0.874;2023-02-26T07:28:01;101451.22;;;17.72;
46015;BME280;36844;51.898;-0.874;2023-02-26T07:30:26;101462.47;;;17.78;
46015;BME280;36844;51.898;-0.874;2023-02-26T07:32:52;101455.94;;;17.83;
46015;BME280;36844;51.898;-0.874;2023-02-26T07:35:17;101456.75;;;17.87;
46015;BME280;36844;51.898;-0.874;2023-02-26T07:37:42;101460.28;;;17.91;
46015;BME280;36844;51.898;-0.874;2023-02-26T07:40:08;101459.94;;;17.96;
46015;BME280;36844;51.898;-0.874;2023-02-26T07:42:33;101472.31;;;18.00;
46015;BME280;36844;51.898;-0.874;2023-02-26T07:44:59;101461.19;;;18.05;
46015;BME280;36844;51.898;-0.874;2023-02-26T07:47:24;101455.44;;;18.10;
46015;BME280;36844;51.898;-0.874;2023-02-26T07:49:49;101462.44;;;18.15;
46015;BME280;36844;51.898;-0.874;2023-02-26T07:52:14;101466.75;;;18.19;
46015;BME280;36844;51.898;-0.874;2023-02-26T07:54:40;101461.75;;;18.25;
46015;BME280;36844;51.898;-0.874;2023-02-26T07:57:06;101466.03;;;18.29;
46015;BME280;36844;51.898;-0.874;2023-02-26T07:59:31;101469.56;;;18.33;
46015;BME280;36844;51.898;-0.874;2023-02-26T08:01:56;101477.31;;;18.38;
46015;BME280;36844;51.898;-0.874;2023-02-26T08:04:21;101481.59;;;18.43;
46015;BME280;36844;51.898;-0.874;2023-02-26T08:06:47;101490.91;;;18.49;
46015;BME280;36844;51.898;-0.874;2023-02-26T08:09:12;101488.97;;;18.53;
46015;BME280;36844;51.898;-0.874;2023-02-26T08:11:37;101490.56;;;18.57;
46015;BME280;36844;51.898;-0.874;2023-02-26T08:14:05;101502.97;;;18.62;
46015;BME280;36844;51.898;-0.874;2023-02-26T08:16:30;101499.88;;;18.67;
46015;BME280;36844;51.898;-0.874;2023-02-26T08:18:55;101495.28;;;18.71;
46015;BME280;36844;51.898;-0.874;2023-02-26T08:21:21;101494.19;;;18.75;
46015;BME280;36844;51.898;-0.874;2023-02-26T08:23:46;101503.06;;;18.80;
46015;BME280;36844;51.898;-0.874;2023-02-26T08:26:12;101514.31;;;18.85;
46015;BME280;36844;51.898;-0.874;2023-02-26T08:28:38;101523.22;;;18.89;
46015;BME280;36844;51.898;-0.874;2023-02-26T08:31:03;101523.22;;;18.93;
46015;BME280;36844;51.898;-0.874;2023-02-26T08:33:28;101527.06;;;18.92;
46015;BME280;36844;51.898;-0.874;2023-02-26T08:35:54;101532.41;;;18.85;
46015;BME280;36844;51.898;-0.874;2023-02-26T08:38:21;101537.38;;;18.75;
46015;BME280;36844;51.898;-0.874;2023-02-26T08:40:50;101542.72;;;18.72;
46015;BME280;36844;51.898;-0.874;2023-02-26T08:43:17;101537.69;;;18.70;
46015;BME280;36844;51.898;-0.874;2023-02-26T08:45:42;101532.28;;;18.70;
46015;BME280;36844;51.898;-0.874;2023-02-26T08:48:08;101534.25;;;18.70;
46015;BME280;36844;51.898;-0.874;2023-02-26T08:50:33;101538.13;;;18.72;
46015;BME280;36844;51.898;-0.874;2023-02-26T08:52:58;101540.47;;;18.74;
46015;BME280;36844;51.898;-0.874;2023-02-26T08:55:24;101544.69;;;18.75;
46015;BME280;36844;51.898;-0.874;2023-02-26T08:57:49;101550.50;;;18.77;
46015;BME280;36844;51.898;-0.874;2023-02-26T09:00:15;101552.03;;;18.78;
46015;BME280;36844;51.898;-0.874;2023-02-26T09:02:40;101552.44;;;18.80;
46015;BME280;36844;51.898;-0.874;2023-02-26T09:05:06;101558.63;;;18.81;
46015;BME280;36844;51.898;-0.874;2023-02-26T09:07:31;101555.94;;;18.81;
46015;BME280;36844;51.898;-0.874;2023-02-26T09:09:56;101559.41;;;18.81;
46015;BME280;36844;51.898;-0.874;2023-02-26T09:12:22;101564.41;;;18.83;
46015;BME280;36844;51.898;-0.874;2023-02-26T09:14:47;101573.66;;;18.82;
46015;BME280;36844;51.898;-0.874;2023-02-26T09:17:12;101577.53;;;18.81;
46015;BME280;36844;51.898;-0.874;2023-02-26T09:19:37;101581.78;;;18.82;
46015;BME280;36844;51.898;-0.874;2023-02-26T09:22:03;101571.69;;;18.78;
46015;BME280;36844;51.898;-0.874;2023-02-26T09:24:28;101581.00;;;18.81;
46015;BME280;36844;51.898;-0.874;2023-02-26T09:26:53;101587.16;;;18.82;
46015;BME280;36844;51.898;-0.874;2023-02-26T09:29:18;101585.22;;;18.82;
46015;BME280;36844;51.898;-0.874;2023-02-26T09:31:44;101590.63;;;18.82;
46015;BME280;36844;51.898;-0.874;2023-02-26T09:34:09;101594.09;;;18.83;
46015;BME280;36844;51.898;-0.874;2023-02-26T09:36:34;101585.22;;;18.82;
46015;BME280;36844;51.898;-0.874;2023-02-26T09:39:01;101592.97;;;18.84;
46015;BME280;36844;51.898;-0.874;2023-02-26T09:41:30;101595.69;;;18.84;
46015;BME280;36844;51.898;-0.874;2023-02-26T09:49:14;101606.47;;;18.84;
46015;BME280;36844;51.898;-0.874;2023-02-26T09:51:41;101612.66;;;18.84;
46015;BME280;36844;51.898;-0.874;2023-02-26T09:54:18;101608.38;;;18.83;
46015;BME280;36844;51.898;-0.874;2023-02-26T09:56:44;101616.47;;;18.83;
46015;BME280;36844;51.898;-0.874;2023-02-26T09:59:10;101613.78;;;18.83;
46015;BME280;36844;51.898;-0.874;2023-02-26T10:04:06;101623.00;;;18.82;
46015;BME280;36844;51.898;-0.874;2023-02-26T10:06:38;101623.00;;;18.82;
46015;BME280;36844;51.898;-0.874;2023-02-26T10:14:16;101629.94;;;18.80;
46015;BME280;36844;51.898;-0.874;2023-02-26T10:16:43;101632.66;;;18.80;
46015;BME280;36844;51.898;-0.874;2023-02-26T10:19:12;101637.28;;;18.79;
46015;BME280;36844;51.898;-0.874;2023-02-26T10:21:45;101637.66;;;18.77;
46015;BME280;36844;51.898;-0.874;2023-02-26T10:24:16;101633.41;;;18.77;
46015;BME280;36844;51.898;-0.874;2023-02-26T10:26:44;101638.81;;;18.77;
46015;BME280;36844;51.898;-0.874;2023-02-26T10:29:14;101643.41;;;18.76;
46015;BME280;36844;51.898;-0.874;2023-02-26T10:39:41;101658.44;;;18.73;
46015;BME280;36844;51.898;-0.874;2023-02-26T10:42:21;101656.53;;;18.74;
46015;BME280;36844;51.898;-0.874;2023-02-26T10:44:56;101665.75;;;18.73;
46015;BME280;36844;51.898;-0.874;2023-02-26T10:47:28;101669.59;;;18.72;
46015;BME280;36844;51.898;-0.874;2023-02-26T10:52:25;101670.38;;;18.72;
46015;BME280;36844;51.898;-0.874;2023-02-26T10:57:23;101673.41;;;18.71;
46015;BME280;36844;51.898;-0.874;2023-02-26T10:59:49;101683.44;;;18.70;
46015;BME280;36844;51.898;-0.874;2023-02-26T11:02:26;101676.53;;;18.69;
46015;BME280;36844;51.898;-0.874;2023-02-26T11:04:55;101672.25;;;18.68;
46015;BME280;36844;51.898;-0.874;2023-02-26T11:07:20;101679.56;;;18.68;
46015;BME280;36844;51.898;-0.874;2023-02-26T11:09:46;101678.00;;;18.67;
46015;BME280;36844;51.898;-0.874;2023-02-26T11:12:12;101679.19;;;18.66;
46015;BME280;36844;51.898;-0.874;2023-02-26T11:14:38;101687.63;;;18.64;
46015;BME280;36844;51.898;-0.874;2023-02-26T11:17:05;101696.09;;;18.63;
46015;BME280;36844;51.898;-0.874;2023-02-26T11:19:38;101698.38;;;18.61;
46015;BME280;36844;51.898;-0.874;2023-02-26T11:22:05;101701.47;;;18.59;
46015;BME280;36844;51.898;-0.874;2023-02-26T11:24:38;101700.25;;;18.57;
46015;BME280;36844;51.898;-0.874;2023-02-26T11:27:05;101713.75;;;18.57;
46015;BME280;36844;51.898;-0.874;2023-02-26T11:29:41;101711.81;;;18.54;
46015;BME280;36844;51.898;-0.874;2023-02-26T11:32:17;101711.81;;;18.54;
46015;BME280;36844;51.898;-0.874;2023-02-26T11:34:46;101710.59;;;18.51;
46015;BME280;36844;51.898;-0.874;2023-02-26T11:37:12;101722.94;;;18.49;
46015;BME280;36844;51.898;-0.874;2023-02-26T11:39:42;101715.97;;;18.48;
46015;BME280;36844;51.898;-0.874;2023-02-26T11:42:08;101717.88;;;18.47;
46015;BME280;36844;51.898;-0.874;2023-02-26T11:44:36;101709.41;;;18.45;
46015;BME280;36844;51.898;-0.874;2023-02-26T11:47:04;101720.53;;;18.44;
46015;BME280;36844;51.898;-0.874;2023-02-26T11:49:30;101721.69;;;18.43;
46015;BME280;36844;51.898;-0.874;2023-02-26T11:52:14;101722.41;;;18.40;
46015;BME280;36844;51.898;-0.874;2023-02-26T11:54:40;101720.09;;;18.38;
46015;BME280;36844;51.898;-0.874;2023-02-26T11:57:15;101726.97;;;18.36;
46015;BME280;36844;51.898;-0.874;2023-02-26T11:59:41;101725.47;;;18.35;
46015;BME280;36844;51.898;-0.874;2023-02-26T12:02:12;101733.13;;;18.33;
46015;BME280;36844;51.898;-0.874;2023-02-26T12:04:38;101730.81;;;18.31;
46015;BME280;36844;51.898;-0.874;2023-02-26T12:07:07;101727.34;;;18.31;
46015;BME280;36844;51.898;-0.874;2023-02-26T12:09:35;101729.59;;;18.29;
46015;BME280;36844;51.898;-0.874;2023-02-26T12:35:58;101744.56;;;18.23;
46015;BME280;36844;51.898;-0.874;2023-02-26T12:38:31;101740.72;;;18.24;
46015;BME280;36844;51.898;-0.874;2023-02-26T12:43:51;101746.16;;;18.27;
46015;BME280;36844;51.898;-0.874;2023-02-26T13:04:17;101751.88;;;18.52;
46015;BME280;36844;51.898;-0.874;2023-02-26T13:17:38;101744.44;;;18.75;
46015;BME280;36844;51.898;-0.874;2023-02-26T13:20:11;101741.41;;;18.80;
46015;BME280;36844;51.898;-0.874;2023-02-26T13:22:39;101739.53;;;18.84;
46015;BME280;36844;51.898;-0.874;2023-02-26T13:27:51;101732.25;;;18.92;
46015;BME280;36844;51.898;-0.874;2023-02-26T13:30:31;101744.25;;;18.94;
46015;BME280;36844;51.898;-0.874;2023-02-26T13:32:58;101740.44;;;18.99;
46015;BME280;36844;51.898;-0.874;2023-02-26T13:35:31;101730.84;;;19.01;
46015;BME280;36844;51.898;-0.874;2023-02-26T13:37:58;101747.44;;;19.03;
46015;BME280;36844;51.898;-0.874;2023-02-26T13:40:33;101757.50;;;19.06;
46015;BME280;36844;51.898;-0.874;2023-02-26T13:43:12;101750.63;;;19.09;
46015;BME280;36844;51.898;-0.874;2023-02-26T13:48:32;101754.84;;;19.13;
46015;BME280;36844;51.898;-0.874;2023-02-26T13:51:05;101741.78;;;19.15;
46015;BME280;36844;51.898;-0.874;2023-02-26T13:53:34;101748.75;;;19.16;
46015;BME280;36844;51.898;-0.874;2023-02-26T13:56:07;101742.19;;;19.17;
46015;BME280;36844;51.898;-0.874;2023-02-26T13:58:37;101747.22;;;19.19;
46015;BME280;36844;51.898;-0.874;2023-02-26T14:01:06;101744.53;;;19.19;
46015;BME280;36844;51.898;-0.874;2023-02-26T14:03:32;101742.59;;;19.19;
46015;BME280;36844;51.898;-0.874;2023-02-26T14:06:09;101738.75;;;19.20;
46015;BME280;36844;51.898;-0.874;2023-02-26T14:08:41;101736.81;;;19.21;
46015;BME280;36844;51.898;-0.874;2023-02-26T14:13:37;101729.47;;;19.21;
46015;BME280;36844;51.898;-0.874;2023-02-26T14:16:12;101734.50;;;19.23;
46015;BME280;36844;51.898;-0.874;2023-02-26T14:23:57;101744.56;;;19.22;
46015;BME280;36844;51.898;-0.874;2023-02-26T14:26:23;101741.84;;;19.22;
46015;BME280;36844;51.898;-0.874;2023-02-26T14:29:25;101749.19;;;19.22;
46015;BME280;36844;51.898;-0.874;2023-02-26T14:34:15;101741.81;;;19.19;
46015;BME280;36844;51.898;-0.874;2023-02-26T14:39:22;101741.03;;;19.18;
46015;BME280;36844;51.898;-0.874;2023-02-26T14:41:48;101741.03;;;19.18;
46015;BME280;36844;51.898;-0.874;2023-02-26T14:44:17;101745.66;;;19.18;
46015;BME280;36844;51.898;-0.874;2023-02-26T14:46:45;101743.34;;;19.16;
46015;BME280;36844;51.898;-0.874;2023-02-26T14:49:13;101742.94;;;19.14;
46015;BME280;36844;51.898;-0.874;2023-02-26T14:51:44;101747.94;;;19.12;
46015;BME280;36844;51.898;-0.874;2023-02-26T15:02:15;101750.53;;;19.02;
46015;BME280;36844;51.898;-0.874;2023-02-26T15:17:57;101760.84;;;18.93;
46015;BME280;36844;51.898;-0.874;2023-02-26T15:25:29;101760.81;;;18.89;
46015;BME280;36844;51.898;-0.874;2023-02-26T15:27:55;101765.78;;;18.87;
46015;BME280;36844;51.898;-0.874;2023-02-26T15:30:21;101769.63;;;18.86;
46015;BME280;36844;51.898;-0.874;2023-02-26T15:32:46;101759.97;;;18.85;
46015;BME280;36844;51.898;-0.874;2023-02-26T15:35:18;101763.06;;;18.84;
46015;BME280;36844;51.898;-0.874;2023-02-26T15:37:58;101765.34;;;18.82;
46015;BME280;36844;51.898;-0.874;2023-02-26T15:40:25;101762.22;;;18.80;
46015;BME280;36844;51.898;-0.874;2023-02-26T15:42:52;101762.22;;;18.80;
46015;BME280;36844;51.898;-0.874;2023-02-26T15:45:21;101773.41;;;18.78;
46015;BME280;36844;51.898;-0.874;2023-02-26T15:47:48;101766.47;;;18.77;
46015;BME280;36844;51.898;-0.874;2023-02-26T15:50:15;101771.41;;;18.75;
46015;BME280;36844;51.898;-0.874;2023-02-26T15:52:41;101776.03;;;18.74;
46015;BME280;36844;51.898;-0.874;2023-02-26T15:55:06;101784.13;;;18.74;
46015;BME280;36844;51.898;-0.874;2023-02-26T15:57:32;101787.22;;;18.73;
46015;BME280;36844;51.898;-0.874;2023-02-26T16:00:04;101786.81;;;18.74;
46015;BME280;36844;51.898;-0.874;2023-02-26T16:02:31;101785.31;;;18.73;
46015;BME280;36844;51.898;-0.874;2023-02-26T16:04:56;101780.31;;;18.75;
46015;BME280;36844;51.898;-0.874;2023-02-26T16:07:21;101782.22;;;18.75;
46015;BME280;36844;51.898;-0.874;2023-02-26T16:09:51;101784.19;;;18.78;
46015;BME280;36844;51.898;-0.874;2023-02-26T16:12:23;101779.22;;;18.80;
46015;BME280;36844;51.898;-0.874;2023-02-26T16:14:51;101785.00;;;18.82;